sim
Sign-in with your pilot id or email,
or register
Callsign
Passwort

Schedule Details

Flight Number: DLH2669 (1)
Departure: Malaga Costa Del Sol Airport (LEMG) at 16:00
Arrival: Munich Airport (EDDM) at 18:55
Route: Lufthansa Passenger Schedule. Enter filed route here before submitting Pirep.

Weather Information
Getting current METAR information for LEMG 240330Z 28009KT 240V300 CAVOK 25/15 Q1015 NOSIG
Getting current METAR information for EDDM 240320Z VRB02KT CAVOK 09/09 Q1009 NOSIG

Schedule Frequency

Route Map